Terminal Aerodrome Forecast
Issued by NWS

Home | Current Version | Previous Version | Graphics & Text | Print | Product List | Glossary On
Versions: 1 2 3 4 5 6 7 8 9 10 11 12 13 14 15 16 17 18 19 20 21 22 23 24 25 26 27 28 29 30 31 32 33 34 35 36 37 38 39 40 41 42 43 44 45
000
FTUS43 KLOT 111700
TAFORD
TAF
KORD 111740Z 1118/1224 16009KT P6SM FEW200 SCT250
     FM112200 18009KT P6SM FEW150 BKN250
     FM120400 17006KT P6SM SCT050 OVC080 PROB30 1209/1212 -TSRA
      BKN040CB
     FM121300 18009KT P6SM OVC020
     FM121800 20013G18KT P6SM SCT035 BKN090=

USA.gov is the U.S. government's official web portal to all federal, state and local government web resources and services.